Thunder radar more information blitzortung!


Radar de pluja more information rain snow radar


Visita la nostra xarxa de llocs de meteo:

Template documentation
and downloads

And another site



Wind From: 11-12-2017 11:00 Until: 14:59 warning for: Wind Level: Yellow info button

Pagina Historial Weather Underground text

Diari Resum Novembre 9, 2017 Unitats:  Imperial    Mètric   Tant
« Previous Dia
SegĂźent Dia »
Diari Setmana Mensual Anual Personalitzada
  Maxima: Minima: Media:
Temperatura: 57.4 °F 38.7 °F 48 °F
Punt de rosada: 38.5 °F 27.5 °F 33.6 °F
Humitat: 70 % 47 % 58 %
Wind Speed: 8.1 mph 0 mph 2.1 mph
RĂ fegues de vent: 8.1 mph - -
Vent:- - ESE
Pression baro: 30.3 in 30.2 in -
Precipitacions: 0 in    
Historical Graphs
 
 
Dades de taula per Novembre 9, 2017
Temps Temperatura Punt de rosada Pression baro Vent Wind Speed RĂ fegues de vent Humitat Rainfall Rate (Hourly)
00:04 46.2 °F 30.9 °F 30.2 in WSW 3.5 mph 3.5 mph 55 % 0 in
00:05 39 °F 27.5 °F 30.2 in NW 1 mph 3 mph 63 % 0 in
00:15 39 °F 27.9 °F 30.2 in NW 1 mph 3 mph 64 % 0 in
00:25 39.2 °F 27.7 °F 30.2 in North 1 mph 3 mph 63 % 0 in
00:35 39.2 °F 28 °F 30.2 in NNE 1 mph 3 mph 64 % 0 in
00:45 39.2 °F 27.7 °F 30.2 in North 1 mph 2 mph 63 % 0 in
00:55 39 °F 27.9 °F 30.2 in NW 1 mph 2 mph 64 % 0 in
01:05 38.8 °F 27.7 °F 30.2 in Calm   1 mph 64 % 0 in
01:15 38.7 °F 27.5 °F 30.2 in SW 1 mph 1 mph 64 % 0 in
01:25 38.7 °F 27.5 °F 30.2 in WSW 1 mph 2 mph 64 % 0 in
01:35 38.7 °F 27.5 °F 30.2 in West 1 mph 1 mph 64 % 0 in
01:45 38.7 °F 27.9 °F 30.2 in WNW 1 mph   65 % 0 in
01:55 39.2 °F 28.4 °F 30.2 in NW 1 mph 1 mph 65 % 0 in
02:05 40.1 °F 29.3 °F 30.2 in NNE 1 mph 2 mph 65 % 0 in
02:15 40.6 °F 29.5 °F 30.2 in NE 1 mph 3 mph 64 % 0 in
02:25 41 °F 29.7 °F 30.2 in NE 1 mph 2 mph 64 % 0 in
02:35 41.4 °F 29.7 °F 30.2 in NNE 1 mph 4 mph 63 % 0 in
02:45 41.9 °F 30.2 °F 30.2 in NNE 2 mph 5 mph 63 % 0 in
02:55 42.4 °F 30.7 °F 30.2 in NNE 2 mph 4 mph 63 % 0 in
03:05 43 °F 30.7 °F 30.2 in NE 5 mph 6 mph 62 % 0 in
03:15 43.5 °F 31.5 °F 30.2 in NE 3 mph 4 mph 62 % 0 in
03:35 45.5 °F 32.7 °F 30.2 in NE 2 mph 3 mph 61 % 0 in
03:45 46.4 °F 33.3 °F 30.2 in NNE 1 mph 3 mph 60 % 0 in
03:55 46 °F 32.5 °F 30.2 in NNE 3 mph 4 mph 59 % 0 in
04:05 46.2 °F 32.7 °F 30.2 in NE 3 mph 5 mph 59 % 0 in
04:15 46.9 °F 33.3 °F 30.2 in ENE 2 mph 3 mph 59 % 0 in
04:25 47.1 °F 33.1 °F 30.2 in NE 2 mph 6 mph 58 % 0 in
04:35 47.3 °F 32.7 °F 30.2 in NNE 3 mph 6 mph 57 % 0 in
04:45 48.2 °F 34.2 °F 30.2 in NNE 1 mph 4 mph 58 % 0 in
04:50 47.8 °F 33.3 °F 30.2 in NNE 3 mph 4 mph 57 % 0 in
10:49 47.8 °F 33.3 °F 30.2 in NE 3.5 mph 4.7 mph 57 % 0 in
10:50 48 °F 33.4 °F 30.2 in North 3.5 mph 3.5 mph 57 % 0 in
10:55 48.6 °F 34 °F 30.2 in North 3.5 mph 3.5 mph 57 % 0 in
11:00 49.1 °F 34.5 °F 30.2 in WNW 3.8 mph 3.8 mph 57 % 0 in
11:05 49.3 °F 34.7 °F 30.2 in NNE 4.6 mph 4.6 mph 57 % 0 in
11:10 48.7 °F 33.6 °F 30.2 in ESE 3.5 mph 3.5 mph 56 % 0 in
11:15 48.9 °F 34 °F 30.2 in NE 3.5 mph 3.5 mph 56 % 0 in
11:20 49.8 °F 34.7 °F 30.2 in NE 2.3 mph 2.3 mph 56 % 0 in
11:25 49.6 °F 34.2 °F 30.2 in East 4.7 mph 4.7 mph 55 % 0 in
11:30 49.8 °F 34.3 °F 30.2 in NE 4.6 mph 4.6 mph 55 % 0 in
11:35 49.8 °F 34.3 °F 30.2 in WNW 3.5 mph 3.5 mph 55 % 0 in
11:40 49.6 °F 34.2 °F 30.2 in NNE 3.5 mph 3.5 mph 55 % 0 in
11:45 50 °F 34.5 °F 30.2 in ENE 4.6 mph 4.6 mph 55 % 0 in
11:50 50.7 °F 35.1 °F 30.2 in NE 3.1 mph 3.1 mph 55 % 0 in
11:55 50.4 °F 34.3 °F 30.2 in ESE 3.5 mph 3.5 mph 54 % 0 in
12:00 50.5 °F 34.5 °F 30.2 in East 3.5 mph 3.5 mph 54 % 0 in
12:05 51.1 °F 35.1 °F 30.2 in North 3.3 mph 3.3 mph 54 % 0 in
12:10 52 °F 36.3 °F 30.2 in NW 2.4 mph 2.4 mph 55 % 0 in
12:15 52 °F 35.8 °F 30.2 in WSW 2.9 mph 2.9 mph 54 % 0 in
12:20 52 °F 35.8 °F 30.2 in NNE 5.8 mph 5.8 mph 54 % 0 in
12:25 52.2 °F 36 °F 30.2 in ENE 3.5 mph 3.5 mph 54 % 0 in
12:30 52.2 °F 36 °F 30.2 in NNE 5.8 mph 5.8 mph 54 % 0 in
12:35 52.7 °F 36.5 °F 30.2 in ESE 2.4 mph   54 % 0 in
12:40 53.4 °F 36.7 °F 30.2 in ESE 3.5 mph 3.5 mph 53 % 0 in
12:45 53.6 °F 36.9 °F 30.2 in ENE 2.4 mph 2.9 mph 53 % 0 in
12:50 53.6 °F 36.9 °F 30.2 in ESE 3.5 mph 3.5 mph 53 % 0 in
12:55 53.6 °F 36.9 °F 30.2 in ENE 3.6 mph 3.6 mph 53 % 0 in
13:00 53.2 °F 36.1 °F 30.2 in SSE 2.3 mph 2.3 mph 52 % 0 in
13:01 53.8 °F 37 °F 30.2 in ESE 2.3 mph 2.3 mph 53 % 0 in
13:06 54.1 °F 37.4 °F 30.2 in NNE 3.3 mph 3.3 mph 53 % 0 in
13:11 54.1 °F 37.4 °F 30.2 in ESE 2.3 mph   53 % 0 in
13:16 53.8 °F 36.7 °F 30.2 in ENE 4.6 mph 4.6 mph 52 % 0 in
13:21 54.1 °F 36.9 °F 30.2 in ESE 3.5 mph 3.5 mph 52 % 0 in
13:26 54.5 °F 37.2 °F 30.2 in ENE 3.5 mph 3.5 mph 52 % 0 in
13:31 54.3 °F 37 °F 30.2 in ESE 3.6 mph 3.6 mph 52 % 0 in
13:33 54.1 °F 36.9 °F 30.2 in ESE 3.5 mph 3.5 mph 52 % 0 in
13:38 54.5 °F 37.2 °F 30.2 in ESE 2.3 mph 2.3 mph 52 % 0 in
13:43 55 °F 37.8 °F 30.2 in East 2.6 mph 2.6 mph 52 % 0 in
13:48 55.2 °F 37.9 °F 30.2 in NNE 2.9 mph 2.9 mph 52 % 0 in
13:53 55.6 °F 38.1 °F 30.2 in SW 2.3 mph 2.3 mph 52 % 0 in
13:58 55.8 °F 38.5 °F 30.2 in East 2.9 mph 2.9 mph 52 % 0 in
14:03 55.9 °F 38.1 °F 30.2 in ESE 3.5 mph 3.5 mph 51 % 0 in
14:08 55.6 °F 37.8 °F 30.2 in East 5.8 mph 5.8 mph 51 % 0 in
14:13 55.6 °F 37.8 °F 30.2 in NNE 3.5 mph 3.5 mph 51 % 0 in
14:18 55.6 °F 37.2 °F 30.2 in ESE 5.8 mph 5.8 mph 50 % 0 in
14:23 55.6 °F 37.2 °F 30.2 in East 4.3 mph 4.3 mph 50 % 0 in
14:28 55.6 °F 37.2 °F 30.2 in ESE 3.5 mph 3.5 mph 50 % 0 in
14:33 55.6 °F 37.2 °F 30.2 in NNE 3.6 mph 3.6 mph 50 % 0 in
14:38 56.1 °F 38.1 °F 30.2 in NE 4.6 mph 4.6 mph 51 % 0 in
14:43 56.3 °F 37.9 °F 30.2 in East 5.8 mph 5.8 mph 50 % 0 in
14:48 56.1 °F 37.8 °F 30.2 in East 4.6 mph 4.6 mph 50 % 0 in
14:53 56.5 °F 38.1 °F 30.2 in ESE 4.6 mph 4.6 mph 50 % 0 in
14:58 56.5 °F 38.1 °F 30.2 in ENE 6.9 mph 6.9 mph 50 % 0 in
15:03 56.5 °F 38.1 °F 30.2 in NE 8.1 mph 8.1 mph 50 % 0 in
15:08 56.7 °F 38.1 °F 30.2 in NE 4.6 mph 4.6 mph 50 % 0 in
15:13 57 °F 37.9 °F 30.2 in ENE 4.6 mph 4.6 mph 49 % 0 in
15:18 56.7 °F 37.8 °F 30.2 in ESE 4.6 mph 4.6 mph 49 % 0 in
15:23 56.8 °F 37.2 °F 30.2 in WSW 3.5 mph 3.5 mph 48 % 0 in
15:28 57.4 °F 37.8 °F 30.2 in SSE 2.3 mph 2.3 mph 48 % 0 in
15:33 57 °F 37.6 °F 30.2 in SE 4.6 mph 4.6 mph 48 % 0 in
15:38 56.5 °F 37 °F 30.2 in ESE 5.8 mph 5.8 mph 48 % 0 in
15:43 56.7 °F 37.2 °F 30.2 in ESE 5.8 mph 5.8 mph 48 % 0 in
15:48 56.5 °F 36.5 °F 30.2 in ESE 2.6 mph 2.6 mph 47 % 0 in
15:53 56.7 °F 36.7 °F 30.2 in ESE 4 mph 4 mph 47 % 0 in
15:58 57 °F 37.6 °F 30.2 in East 2.9 mph 2.9 mph 48 % 0 in
16:03 57 °F 37 °F 30.2 in ESE 3.5 mph 3.5 mph 47 % 0 in
16:08 56.7 °F 36.7 °F 30.2 in SSE 2.3 mph 2.3 mph 47 % 0 in
16:13 57 °F 37.6 °F 30.2 in WSW 2.3 mph 2.3 mph 48 % 0 in
16:18 57 °F 37.6 °F 30.2 in WSW 3.5 mph 3.5 mph 48 % 0 in
16:23 57 °F 37.6 °F 30.2 in Calm     48 % 0 in
16:28 56.8 °F 36.9 °F 30.2 in SE 1.6 mph   47 % 0 in
16:33 56.3 °F 36.3 °F 30.2 in ESE 3.5 mph 3.5 mph 47 % 0 in
16:38 55.8 °F 36.3 °F 30.2 in SE 3.5 mph 3.5 mph 48 % 0 in
16:43 55.4 °F 36 °F 30.2 in ESE 4.3 mph 4.3 mph 48 % 0 in
16:48 55 °F 35.8 °F 30.2 in SE 3.5 mph 3.5 mph 48 % 0 in
16:53 55 °F 36.1 °F 30.2 in South 3.5 mph 3.5 mph 49 % 0 in
16:58 54.9 °F 36 °F 30.2 in NNE 2.3 mph 2.3 mph 49 % 0 in
17:03 54.7 °F 36 °F 30.2 in NE 1.4 mph   49 % 0 in
17:08 54.3 °F 36.1 °F 30.2 in NNE 1.2 mph 1.2 mph 50 % 0 in
17:13 54.1 °F 36 °F 30.2 in Calm     50 % 0 in
17:18 54 °F 35.8 °F 30.2 in Calm     50 % 0 in
17:23 53.8 °F 35.6 °F 30.2 in NNE 1.2 mph   50 % 0 in
17:28 53.6 °F 35.4 °F 30.2 in NNW 2.3 mph 2.3 mph 50 % 0 in
17:33 53.2 °F 35.1 °F 30.2 in NNW 1.2 mph   50 % 0 in
17:38 52.9 °F 34.7 °F 30.2 in Calm     50 % 0 in
17:43 52.9 °F 34.7 °F 30.2 in NE 1.6 mph 1.6 mph 50 % 0 in
17:48 52.3 °F 34.7 °F 30.2 in NNE 2.6 mph 2.6 mph 51 % 0 in
17:53 52 °F 34.3 °F 30.2 in NNE 2.4 mph 2.4 mph 51 % 0 in
17:58 51.8 °F 34.2 °F 30.2 in NNE 3.5 mph 3.5 mph 51 % 0 in
18:03 52.2 °F 34.5 °F 30.2 in NNE 4.6 mph 4.6 mph 51 % 0 in
18:08 52 °F 34.3 °F 30.2 in NNE 4.6 mph 4.6 mph 51 % 0 in
18:13 51.8 °F 34.2 °F 30.2 in NE 3.5 mph 3.5 mph 51 % 0 in
18:15 41.2 °F 31.5 °F 30.3 in Calm   3 mph 68 % 0 in
18:18 51.6 °F 34.5 °F 30.2 in NNE 2.3 mph 2.3 mph 52 % 0 in
18:23 51.4 °F 34.3 °F 30.2 in Calm     52 % 0 in
18:25 41 °F 31.6 °F 30.3 in South 1 mph 1 mph 69 % 0 in
18:28 51.1 °F 34.2 °F 30.2 in NNW 2.2 mph 2.2 mph 52 % 0 in
18:33 50.7 °F 33.6 °F 30.2 in NNE 2.3 mph 2.3 mph 52 % 0 in
18:35 41 °F 31.6 °F 30.3 in Calm   1 mph 69 % 0 in
18:38 50.5 °F 33.6 °F 30.2 in NE 2.3 mph 2.3 mph 52 % 0 in
18:43 50.2 °F 33.3 °F 30.2 in NNE 3.5 mph 3.5 mph 52 % 0 in
18:45 41.2 °F 31.8 °F 30.3 in Calm     69 % 0 in
18:48 50 °F 33.4 °F 30.2 in ENE 3.5 mph 3.5 mph 53 % 0 in
18:53 50 °F 33.4 °F 30.2 in NNE 2.3 mph 2.3 mph 53 % 0 in
18:55 40.8 °F 31.8 °F 30.3 in Calm     70 % 0 in
18:58 49.8 °F 33.4 °F 30.2 in NNW 1.2 mph   53 % 0 in
19:03 49.5 °F 33.1 °F 30.2 in NNW 1.2 mph   53 % 0 in
19:05 40.6 °F 31.3 °F 30.3 in NNW 1 mph 2 mph 69 % 0 in
19:08 49.3 °F 32.9 °F 30.2 in NNE 2.3 mph   53 % 0 in
19:13 48.9 °F 33.1 °F 30.2 in NNE 2.4 mph 2.4 mph 54 % 0 in
19:15 40.5 °F 31.5 °F 30.3 in Calm   2 mph 70 % 0 in
19:18 48.7 °F 32.7 °F 30.2 in NNE 1.2 mph 1.2 mph 54 % 0 in
19:23 48.6 °F 32.7 °F 30.2 in North 1.2 mph   54 % 0 in
19:25 40.1 °F 31.1 °F 30.3 in Calm   1 mph 70 % 0 in
19:28 48.4 °F 32.5 °F 30.2 in NNW 1.2 mph   54 % 0 in
19:33 48.2 °F 32.7 °F 30.2 in NNW 1.2 mph 1.2 mph 55 % 0 in
19:35 39.7 °F 30.4 °F 30.3 in Calm   2 mph 69 % 0 in
19:38 48.2 °F 32.7 °F 30.2 in NNW 1.2 mph   55 % 0 in
19:43 48 °F 32.5 °F 30.2 in Calm     55 % 0 in
19:45 39.9 °F 30.6 °F 30.3 in SSW 1 mph 2 mph 69 % 0 in
19:48 48 °F 32.5 °F 30.2 in NE 2.3 mph 2.3 mph 55 % 0 in
19:53 47.8 °F 32.9 °F 30.2 in Calm     56 % 0 in
19:55 39.7 °F 30.7 °F 30.3 in Calm   1 mph 70 % 0 in
19:58 47.8 °F 32.9 °F 30.2 in North 1.2 mph   56 % 0 in
20:03 47.7 °F 32.7 °F 30.2 in Calm     56 % 0 in
20:05 39.9 °F 30.9 °F 30.3 in NNE 1 mph 2 mph 70 % 0 in
20:08 47.7 °F 32.7 °F 30.2 in Calm     56 % 0 in
20:13 47.3 °F 32.7 °F 30.2 in NNW 1.2 mph   57 % 0 in
20:15 40.1 °F 31.1 °F 30.3 in Calm   1 mph 70 % 0 in
20:18 47.3 °F 32.7 °F 30.2 in NNE 1.6 mph   57 % 0 in
20:23 47.3 °F 32.7 °F 30.2 in Calm     57 % 0 in
20:25 40.1 °F 31.1 °F 30.3 in Calm   1 mph 70 % 0 in
20:28 47.3 °F 32.7 °F 30.2 in NNE 2.3 mph 2.3 mph 57 % 0 in
20:33 47.5 °F 33.4 °F 30.2 in Calm     58 % 0 in
20:35 40.1 °F 31.1 °F 30.3 in NW 1 mph 2 mph 70 % 0 in
20:38 47.5 °F 33.4 °F 30.2 in NE 1.2 mph 1.2 mph 58 % 0 in
20:43 47.3 °F 33.3 °F 30.2 in Calm     58 % 0 in
20:45 40.1 °F 30.7 °F 30.3 in North 1 mph 2 mph 69 % 0 in
20:48 46.9 °F 33.3 °F 30.2 in WNW 1.2 mph   59 % 0 in
20:53 46.8 °F 33.3 °F 30.2 in Calm     59 % 0 in
20:55 40.5 °F 31.1 °F 30.3 in NNE 1 mph 1 mph 69 % 0 in
20:58 46.6 °F 33.1 °F 30.2 in Calm     59 % 0 in
21:03 46.4 °F 33.3 °F 30.2 in Calm     60 % 0 in
21:05 40.5 °F 31.1 °F 30.3 in North 1 mph 2 mph 69 % 0 in
21:08 46.2 °F 33.1 °F 30.2 in WNW 1.2 mph 1.2 mph 60 % 0 in
21:13 46.2 °F 33.1 °F 30.2 in WNW 2.3 mph 2.3 mph 60 % 0 in
21:15 40.3 °F 30.9 °F 30.3 in Calm   1 mph 69 % 0 in
21:18 46.2 °F 33.1 °F 30.2 in Calm     60 % 0 in
21:23 46.2 °F 33.1 °F 30.2 in Calm     60 % 0 in
21:25 40.3 °F 30.6 °F 30.3 in Calm   2 mph 68 % 0 in
21:28 46 °F 33.3 °F 30.2 in Calm     61 % 0 in
21:33 46.4 °F 33.6 °F 30.2 in ESE 3.5 mph 3.5 mph 61 % 0 in
21:35 40.3 °F 30.6 °F 30.3 in West 1 mph 2 mph 68 % 0 in
21:38 46.4 °F 34.2 °F 30.2 in East 1.2 mph   62 % 0 in
21:43 46.4 °F 34.2 °F 30.2 in ESE 2.3 mph 2.3 mph 62 % 0 in
21:45 40.1 °F 30.4 °F 30.3 in West 1 mph 1 mph 68 % 0 in
21:48 46.2 °F 34 °F 30.2 in Calm     62 % 0 in
21:53 46.2 °F 34 °F 30.3 in Calm     62 % 0 in
21:58 46 °F 33.6 °F 30.3 in Calm     62 % 0 in
22:03 45.7 °F 33.1 °F 30.3 in Calm     61 % 0 in
22:05 40.1 °F 30 °F 30.3 in West 2 mph 3 mph 67 % 0 in
22:08 45.7 °F 33.1 °F 30.3 in Calm     61 % 0 in
22:13 45.5 °F 33.3 °F 30.3 in Calm     62 % 0 in
22:15 39.9 °F 30.2 °F 30.3 in West 1 mph 2 mph 68 % 0 in
22:18 45.5 °F 33.3 °F 30.3 in Calm     62 % 0 in
22:23 45.3 °F 33.4 °F 30.3 in Calm     63 % 0 in
22:24 45.3 °F 33.4 °F 30.3 in Calm     63 % 0 in
22:25 40.1 °F 30.4 °F 30.3 in NNW 1 mph 2 mph 68 % 0 in
22:29 45.1 °F 33.3 °F 30.3 in Calm     63 % 0 in
22:34 45 °F 33.1 °F 30.3 in ENE 1.2 mph 1.2 mph 63 % 0 in
22:35 39.9 °F 30.2 °F 30.3 in Calm   2 mph 68 % 0 in
22:39 44.6 °F 32.7 °F 30.3 in NNE 1.2 mph 1.2 mph 63 % 0 in
22:44 44.2 °F 32.7 °F 30.3 in Calm     64 % 0 in
22:45 39.9 °F 30.2 °F 30.3 in Calm   1 mph 68 % 0 in
22:49 43.9 °F 32.5 °F 30.3 in ESE 2.3 mph 2.3 mph 64 % 0 in
22:54 43.7 °F 32.4 °F 30.3 in South 1.2 mph 1.2 mph 64 % 0 in
22:55 39.9 °F 30.2 °F 30.3 in NNW 2 mph 3 mph 68 % 0 in
22:59 43.5 °F 32.2 °F 30.3 in Calm     64 % 0 in
23:04 43.2 °F 32.2 °F 30.3 in Calm     65 % 0 in
23:05 39.9 °F 30.2 °F 30.3 in NNE 1 mph 2 mph 68 % 0 in
23:09 42.8 °F 31.8 °F 30.3 in Calm     65 % 0 in
23:14 42.4 °F 31.1 °F 30.3 in SW 2.4 mph 2.4 mph 64 % 0 in
23:15 39.9 °F 30.2 °F 30.3 in NE 2 mph 3 mph 68 % 0 in
23:19 42.3 °F 30.9 °F 30.3 in SW 2.4 mph 2.4 mph 64 % 0 in
23:24 41.9 °F 30.6 °F 30.3 in SW 2.3 mph 2.3 mph 64 % 0 in
23:25 39.7 °F 30 °F 30.3 in NNE 1 mph 4 mph 68 % 0 in
23:29 41.9 °F 30.9 °F 30.3 in SSW 2.3 mph 2.3 mph 65 % 0 in
23:34 41.7 °F 31.3 °F 30.3 in Calm     66 % 0 in
23:35 39.9 °F 30.2 °F 30.3 in North 1 mph 2 mph 68 % 0 in
23:39 41.5 °F 31.5 °F 30.3 in ENE 2.3 mph 2.3 mph 67 % 0 in
23:44 41.5 °F 31.5 °F 30.3 in Calm     67 % 0 in
23:45 39.9 °F 30.2 °F 30.3 in NE 1 mph 2 mph 68 % 0 in
23:49 41.5 °F 31.5 °F 30.3 in Calm     67 % 0 in
23:54 41.4 °F 31.6 °F 30.3 in Calm     68 % 0 in
23:55 39.9 °F 30.2 °F 30.3 in NE 2 mph 2 mph 68 % 0 in
23:59 41.4 °F 31.6 °F 30.3 in Calm     68 % 0 in
Meteo Sesrovires
Elogis d' Weather Underground - 3.75 mb

Guio original per  Jim McMurry - jmcmurry@mwt.net Adaptat per a la plantilla per  Wim van der Kuil - Leuven-Template.eu

Trobareu la nostra informacio del temps tambe a:

Weather Underground

AWEKAS